x

East Hatteras - 150 Nm East Of Cape Hatteras (41001) Wave Buoy

10:50 - Fri 4th Sep 2015 All times are EDT. -4 hours from GMT.

  • Sig Wave height 1.3ft
  • Swell Direction
  • Peak Period 10s
  • Average Period 5s
  • Wind
    2mph
  • Sea Temp 82°f
  • Aire Temp 82°f
  • Sea Pressure 1014.3mb
  • East Hatteras - 150 Nm East Of Cape Hatteras
  • East Hatteras - 150 Nm East Of Cape Hatteras

More Historic Weather Station data

Upgrade to MSW Pro to gain access to the past 30 days of data for over 8000 Wavebouys and Weather Stations around the globe.

Join Pro

Comparision Forecast

View Surf forecast
   
vie 09/04 10:50 1.3ft 10s 5s 2
mph
1014.3mb 82f 82f
10:40  -   -   -  2 4 mph 1014.4mb 82f 82f
10:30  -   -   -  2 4 mph 1014.1mb 82f 82f
10:20  -   -   -  2 4 mph 1014.1mb 82f 82f
10:10  -   -   -   -  2 mph 1014mb 82f 82f
10:00  -   -   -  2 4 mph 1013.9mb 82f 82f
9:50 1.3ft 11s 5s 2
mph
1013.8mb 82f 82f
9:40  -   -   -  2 4 mph 1013.8mb 82f 82f
9:30  -   -   -  2
mph
1013.8mb 82f 82f
9:20  -   -   -  2
mph
1013.6mb 82f 82f
9:10  -   -   -  2
mph
1013.6mb 82f 81f
9:00  -   -   -  2 4 mph 1013.5mb 82f 81f
8:50 1.6ft 11s 5s 2 4 mph 1013.5mb 82f 81f
8:40  -   -   -  2 4 mph 1013.4mb 82f 81f
8:30  -   -   -  2 4 mph 1013.4mb 82f 81f
8:20  -   -   -  2 4 mph 1013.1mb 82f 81f
8:10  -   -   -  4
mph
1013.1mb 82f 81f
8:00  -   -   -  4
mph
1013.3mb 82f 81f
7:50 1.6ft 11s 5s 4
mph
1013.1mb 82f 81f
7:40  -   -   -  2 4 mph 1013mb 82f 81f
7:30  -   -   -  2 4 mph 1012.9mb 82f 80f
7:20  -   -   -  2 4 mph 1012.8mb 82f 80f
7:10  -   -   -  2 4 mph 1012.6mb 82f 80f
7:00  -   -   -  2 4 mph 1012.6mb 82f 80f
6:50 1.6ft 10s 5s 2 4 mph 1012.6mb 82f 80f
6:40  -   -   -  2 4 mph 1012.6mb 82f 80f
6:30  -   -   -  2 4 mph 1012.5mb 82f 80f
6:20  -   -   -  2 4 mph 1012.4mb 82f 80f
6:10  -   -   -  2 4 mph 1012.4mb 82f 80f
6:00  -   -   -  2 4 mph 1012.4mb 82f 80f
5:50  -   -   -  2 4 mph 1012.5mb 82f 80f
5:40  -   -   -  2 4 mph 1012.4mb 82f 80f
5:30  -   -   -  2 4 mph 1012.4mb 82f 80f
5:20  -   -   -  4 7 mph 1012.4mb 82f 80f
5:10  -   -   -  4
mph
1012.3mb 82f 80f
5:00  -   -   -  4
mph
1012.3mb 82f 80f
4:50 1.6ft 12s 4s 4 7 mph 1012.3mb 82f 80f
4:40  -   -   -  4
mph
1012.1mb 82f 80f
4:30  -   -   -  4
mph
1012mb 82f 80f
4:20  -   -   -  4
mph
1012mb 82f 80f
4:10  -   -   -  4 7 mph 1012mb 82f 80f
4:00  -   -   -  4 7 mph 1012mb 82f 80f
3:50 1.6ft 4s 4s 4 7 mph 1012mb 82f 80f
3:40  -   -   -  4 7 mph 1012mb 82f 80f
3:30  -   -   -  4
mph
1012mb 82f 80f
3:20  -   -   -  4 7 mph 1012mb 82f 80f
3:10  -   -   -  4 7 mph 1012mb 82f 80f
3:00  -   -   -  7
mph
1012mb 82f 80f
2:50  -   -   -  4 7 mph 1012mb 82f 80f
2:40  -   -   -  4 7 mph 1011.9mb 82f 80f
2:30  -   -   -  4 7 mph 1012mb 82f 81f
2:20  -   -   -  4 7 mph 1012mb 82f 81f
2:10  -   -   -  4
mph
1012.1mb 82f 81f
2:00  -   -   -  2 4 mph 1012.3mb 82f 81f
1:50 1.6ft 3s 4s 2 4 mph 1012.3mb 82f 81f
1:40  -   -   -  2 4 mph 1012.1mb 82f 81f
1:30  -   -   -  4
mph
1012.3mb 82f 81f
1:20  -   -   -  4
mph
1012.3mb 82f 81f
1:10  -   -   -  4 7 mph 1012.4mb 82f 81f
1:00  -   -   -  4 7 mph 1012.4mb 82f 81f
12:50 1.6ft 12s 4s 4 7 mph 1012.5mb 82f 81f
12:40 1.6ft  -  4s 4 7 mph 1012.4mb 82f 81f
12:30  -   -   -  4 7 mph 1012.5mb 82f 81f
12:20  -   -   -  4 7 mph 1012.5mb 82f 81f
12:10  -   -   -  4 7 mph 1012.5mb 82f 81f
12:00  -   -   -  4 7 mph 1012.5mb 82f 81f
jue 09/03 11:50 1.6ft 12s 4s 4 7 mph 1012.5mb 82f 80f
11:40  -   -   -  7
mph
1012.5mb 82f 80f
11:30  -   -   -  7 9 mph 1012.5mb 82f 80f
11:20  -   -   -  7 9 mph 1012.4mb 82f 80f
11:10  -   -   -  7 9 mph 1012.4mb 82f 80f
11:00  -   -   -  9
mph
1012.5mb 82f 80f
10:50 1.3ft 8s 4s 7 9 mph 1012.4mb 82f 80f
10:40  -   -   -  9 11 mph 1012.4mb 82f 80f
10:30  -   -   -  9
mph
1012.3mb 82f 80f
10:20  -   -   -  7 9 mph 1012.4mb 82f 80f
10:10  -   -   -  7 9 mph 1012.3mb 82f 80f
10:00  -   -   -  7 9 mph 1012.3mb 82f 80f
9:50 1.3ft 12s 5s 9 11 mph 1012.4mb 82f 80f
9:40 1.3ft  -  5s 9 11 mph 1012.3mb 82f 80f
9:30  -   -   -  9 11 mph 1012.4mb 82f 81f
9:20  -   -   -  9
mph
1012.1mb 82f 81f
9:10  -   -   -  7 9 mph 1012mb 82f 81f
9:00  -   -   -  7 9 mph 1012mb 82f 81f
8:50 1.3ft 12s 5s 9
mph
1012mb 82f 81f
8:40  -   -   -  9
mph
1012mb 82f 81f
8:30  -   -   -  7 9 mph 1011.8mb 82f 81f
8:20  -   -   -  9
mph
1011.6mb 82f 81f
8:10  -   -   -  7 9 mph 1011.5mb 82f 81f
8:00  -   -   -  7 9 mph 1011.6mb 82f 81f
7:50 1.6ft 13s 5s 7 9 mph 1011.5mb 82f 81f
7:40  -   -   -  7
mph
1011.6mb 82f 81f
7:30  -   -   -  4
mph
1011.5mb 82f 81f
7:20  -   -   -  4
mph
1011.5mb 82f 81f
7:10  -   -   -  4
mph
1011.6mb 82f 81f
7:00  -   -   -  2 4 mph 1011.5mb 82f 81f
6:50  -   -   -  2 4 mph 1011.5mb 82f 81f
6:40  -   -   -  4 7 mph 1011.6mb 82f 81f
6:30  -   -   -  7
mph
1011.8mb 82f 81f
6:20  -   -   -  7
mph
1011.8mb 82f 81f
6:10  -   -   -  4 7 mph 1011.5mb 82f 81f
6:00  -   -   -  7
mph
1011.6mb 82f 81f
5:50 1.3ft 13s 5s 7 9 mph 1011.6mb 82f 81f
5:40  -   -   -  7 9 mph 1011.8mb 82f 81f
5:30  -   -   -  4 7 mph 1011.8mb 82f 80f
5:20  -   -   -  4 7 mph 1011.8mb 82f 80f
5:10  -   -   -  4 7 mph 1012mb 82f 80f
5:00  -   -   -  7 9 mph 1012mb 82f 79f
4:50 1.6ft 12s 5s 7
mph
1012.1mb 82f 79f
4:40  -   -   -  9 11 mph 1012.3mb 82f 79f
4:30  -   -   -  9 11 mph 1012.4mb 82f 79f
4:20  -   -   -  7 11 mph 1012.3mb 82f 78f
4:10  -   -   -  7 9 mph 1012.3mb 82f 78f
4:00  -   -   -  9 11 mph 1012.1mb 82f 79f
3:50 1.3ft 7s 5s 9 11 mph 1012.3mb 82f 79f
3:40 1.3ft  -  5s 11 13 mph 1012.3mb 82f 79f
3:30  -   -   -  9 13 mph 1012.4mb 82f 78f
3:20  -   -   -  11 16 mph 1012.5mb 82f 78f
3:10  -   -   -  13 18 mph 1012.5mb 82f 78f
3:00  -   -   -  13 16 mph 1012.6mb 82f 78f
2:50 1.6ft 7s 4s 11 16 mph 1012.8mb 82f 77f
2:40  -   -   -  13 16 mph 1013mb 82f 76f
2:30  -   -   -  7 11 mph 1013.1mb 82f 75f
2:20  -   -   -  4 9 mph 1013.4mb 82f 74f
2:10  -   -   -  4 9 mph 1013.4mb 82f 73f
2:00  -   -   -  4 9 mph 1013.5mb 82f 73f
1:50 1.6ft 9s 5s 18 27 mph 1013.8mb 82f 74f
1:40  -   -   -  13 25 mph 1013.4mb 83f 75f
1:30  -   -   -  16 25 mph 1013.5mb 83f 76f
1:20  -   -   -  13 25 mph 1013.1mb 83f 79f
1:10  -   -   -  4 13 mph 1013.3mb 83f 82f
1:00  -   -   -  4 7 mph 1013.1mb 83f 82f
12:50 1.6ft 9s 5s 7 9 mph 1013mb 83f 82f
12:40  -   -   -  7
mph
1013mb 83f 82f
12:30  -   -   -  7 9 mph 1013.1mb 83f 82f
12:20  -   -   -  4 7 mph 1013.1mb 83f 82f
12:10  -   -   -  4 7 mph 1013.3mb 83f 82f
12:00  -   -   -  4 7 mph 1013.1mb 83f 82f
11:50 1.6ft 12s 5s 4 7 mph 1013.4mb - -
11:40  -   -   -  4 7 mph 1013.4mb 82f 82f
11:30  -   -   -  4
mph
1013.4mb 82f 82f
11:20  -   -   -  2 4 mph 1013.4mb 82f 82f
11:10  -   -   -  2 4 mph 1013.3mb 82f 82f
11:00  -   -   -   -  2 mph 1013.3mb 82f 82f
10:50 1.6ft 7s 5s  -  mph 1013.3mb 82f 82f
10:40  -   -   -   -  2 mph 1013.5mb 82f 82f
10:30  -   -   -   -  2 mph 1013.4mb 82f 82f
10:20  -   -   -   -  2 mph 1013.5mb 82f 81f
10:10  -   -   -  2
mph
1013.4mb 82f 81f
10:00  -   -   -  2 4 mph 1013.1mb 82f 81f
9:50 1.6ft 13s 5s 4
mph
1013mb 82f 81f
9:40  -   -   -  4
mph
1013mb 82f 81f
9:30  -   -   -  4 7 mph 1013mb 82f 80f
9:20  -   -   -  7 11 mph 1012.9mb 82f 80f
9:10  -   -   -  9 11 mph 1012.9mb 82f 80f
9:00  -   -   -  11 16 mph 1012.9mb 82f 80f
8:50 1.6ft 13s 5s 4 13 mph 1012.9mb 82f 81f
8:40  -   -   -  4
mph
1013mb 82f 81f
8:30  -   -   -  2 4 mph 1013.1mb 82f 81f
8:20  -   -   -  2 4 mph 1013.1mb 82f 81f
8:10  -   -   -  4 7 mph 1013.1mb 82f 80f
8:00  -   -   -  4 7 mph 1013mb 82f 80f
7:50 1.6ft 13s 5s 4 7 mph 1013mb 82f 80f
7:40  -   -   -  2 4 mph 1013mb 82f 80f
7:30  -   -   -  4
mph
1012.9mb 82f 80f
7:20  -   -   -  4
mph
1013mb 82f 80f
7:10  -   -   -  4
mph
1013mb 82f 80f
7:00  -   -   -  4 7 mph 1012.9mb 82f 80f
6:50 1.6ft 12s 5s 4 7 mph 1012.9mb 82f 80f
6:40  -   -   -  4 7 mph 1012.8mb 82f 80f
6:30  -   -   -  4 7 mph 1012.8mb 82f 80f
6:20  -   -   -  4 7 mph 1012.8mb 82f 80f
6:10  -   -   -  4 7 mph 1012.8mb 82f 80f
6:00  -   -   -  4 7 mph 1012.9mb 82f 80f
5:50 2ft 13s 5s 4 7 mph 1012.9mb 82f 80f
5:40  -   -   -  4 7 mph 1012.9mb 82f 80f
5:30  -   -   -  4
mph
1012.9mb 82f 80f
5:20  -   -   -  4 7 mph 1013mb 82f 80f
5:10  -   -   -  7
mph
1013mb 82f 80f
5:00  -   -   -  4 7 mph 1012.9mb 82f 80f
4:50 2ft 8s 5s 4 9 mph 1012.9mb 82f 80f
4:40  -   -   -  4 7 mph 1012.9mb 82f 80f
4:30  -   -   -  4 7 mph 1013mb 82f 80f
4:20  -   -   -  4 7 mph 1013.1mb 82f 80f
4:10  -   -   -  7
mph
1013.1mb 82f 80f
4:00  -   -   -  7 9 mph 1013.1mb 82f 80f
3:50 1.6ft 8s 5s 7 9 mph 1013.4mb 82f 80f
3:40  -   -   -  7 9 mph 1013.3mb 82f 80f
3:30  -   -   -  7 9 mph 1013.4mb 82f 80f
3:20  -   -   -  4 9 mph 1013.4mb 82f 80f
3:10  -   -   -  4 7 mph 1013.3mb 82f 80f
3:00  -   -   -  4 7 mph 1013.4mb 82f 80f
2:50 1.6ft 13s 5s 4 7 mph 1013.4mb 82f 80f
2:40  -   -   -  4 7 mph 1013.5mb 82f 80f
2:30  -   -   -  4 7 mph 1013.5mb 82f 80f
2:20  -   -   -  4 7 mph 1013.5mb 82f 80f
2:10  -   -   -  7
mph
1013.5mb 82f 80f
2:00  -   -   -  4 7 mph 1013.5mb 83f 80f
1:50 2ft 13s 5s 4 7 mph 1013.5mb 83f 80f
1:40  -   -   -  4
mph
1013.6mb 83f 80f
1:30  -   -   -  2 4 mph 1013.6mb 83f 80f
1:20  -   -   -  2 4 mph 1013.6mb 83f 80f
1:10  -   -   -  2 4 mph 1013.8mb 83f 80f
1:00  -   -   -  2 4 mph 1013.8mb 83f 80f
12:50 1.6ft 9s 5s 2 4 mph 1013.9mb 83f 80f
12:40  -   -   -  2 4 mph 1014mb 83f 80f
12:30  -   -   -  2 4 mph 1014mb 83f 80f
12:20  -   -   -  2 4 mph 1014mb 83f 80f
12:10  -   -   -  2
mph
1014.1mb 83f 80f
12:00  -   -   -  2 4 mph 1014.1mb 83f 80f
mié 09/02 11:50 2ft 8s 5s 2
mph
1014mb 83f 80f
11:40  -   -   -   -  2 mph 1014mb 82f 80f
11:30  -   -   -  2 4 mph 1014mb 83f 80f
11:20  -   -   -  2 4 mph 1014mb 82f 80f
11:10  -   -   -  2 4 mph 1014mb 82f 80f
11:00  -   -   -  4
mph
1014.3mb 83f 80f
10:50 2ft 8s 5s 4
mph
1014mb 83f 81f
10:40  -   -   -  4
mph
1014.1mb 83f 81f
10:30  -   -   -  4
mph
1014mb 83f 81f
10:20  -   -   -  4
mph
1014mb - 80f
10:10  -   -   -  2 4 mph 1014mb 83f 80f
10:00  -   -   -  4
mph
1014mb 83f 80f
9:50 2ft 13s 5s 4 7 mph 1014mb 83f 80f
9:40  -   -   -  4 7 mph 1014.3mb 83f 80f
9:30  -   -   -  4 7 mph 1014.3mb 83f 80f
9:20  -   -   -  4 7 mph 1014mb 83f 80f
9:10  -   -   -  2 4 mph 1014mb 83f 80f
9:00  -   -   -   -  2 mph 1014mb 83f 80f
8:50 2ft 13s 5s  -  2 mph 1014mb 83f 80f
8:40  -   -   -  2
mph
1014mb 83f 80f
8:30  -   -   -  2
mph
1014mb 83f 80f
8:20  -   -   -   -  2 mph 1014mb 83f 80f
8:10  -   -   -   -  2 mph 1014mb 83f 80f
8:00  -   -   -   -  2 mph 1014mb 83f 80f
7:50 2ft 8s 5s 2
mph
1014mb 83f 79f
7:40  -   -   -  2
mph
1014mb 83f 79f
7:30  -   -   -  2 4 mph 1014mb 83f 79f
7:20  -   -   -  2 4 mph 1014mb 83f 79f
7:10  -   -   -  2 4 mph 1014.1mb 83f 78f
7:00  -   -   -  2 4 mph 1014mb 83f 78f
6:50 2ft 6s 5s 2 4 mph 1014mb 83f 78f
6:40  -   -   -  2 4 mph 1014mb 83f 77f
6:30  -   -   -  4 9 mph 1014.3mb 83f 79f
6:20  -   -   -  9 11 mph 1014.3mb 83f 80f
6:10  -   -   -  7
mph
1014.3mb 83f 80f
6:00  -   -   -  7
mph
1014.3mb 83f 80f
5:50 2ft 6s 5s 7 9 mph 1014.4mb 83f 80f
5:40  -   -   -  4 9 mph 1014.5mb 83f 81f
5:30  -   -   -  2 4 mph 1014.5mb 83f 81f
5:20  -   -   -  2 4 mph 1014.6mb 83f 81f
5:10  -   -   -  4
mph
1014.6mb 83f 81f
5:00  -   -   -  2 4 mph 1014.6mb 83f 81f
4:50 2ft 13s 5s 4
mph
1014.6mb 83f 81f
4:40 2ft  -  5s 4
mph
1014.8mb 83f 80f
4:30  -   -   -  7
mph
1014.9mb 83f 80f
4:20  -   -   -  4 9 mph 1015mb 83f 80f
4:10  -   -   -  7 9 mph 1015mb 83f 80f
4:00  -   -   -  4
mph
1015.1mb 83f 80f
3:50 2.5ft 9s 5s 4 7 mph 1015.3mb 83f 79f
3:40  -   -   -  7 9 mph 1015.3mb 83f 79f
3:30  -   -   -  9 11 mph 1015.3mb 83f 80f
3:20  -   -   -  9 11 mph 1015.4mb 83f 80f
3:10  -   -   -  9 11 mph 1015.5mb 83f 80f
3:00  -   -   -  9 13 mph 1015.5mb 83f 80f
2:50 2.5ft 14s 5s 9 13 mph 1015.8mb 83f 80f
2:40  -   -   -  9 11 mph 1015.9mb 83f 81f
2:30  -   -   -  7 9 mph 1016mb 83f 80f
2:20  -   -   -  9 11 mph 1016mb 83f 80f
2:10  -   -   -  9 11 mph 1015.9mb 83f 80f
2:00  -   -   -  9 11 mph 1016mb 83f 81f
1:50 2.5ft 6s 5s 7 11 mph 1016mb 83f 81f
1:40 2.5ft  -  5s 7 9 mph 1016mb 83f 81f
1:30  -   -   -  7 9 mph 1016mb 83f 81f
1:20  -   -   -  7 9 mph 1016.1mb 83f 81f
1:10  -   -   -  7 9 mph 1016mb 83f 80f
1:00  -   -   -  7 9 mph 1016mb 83f 80f
12:50 2.5ft 10s 5s 7 9 mph 1016.1mb 83f 80f
12:40  -   -   -  7 9 mph 1016.3mb 83f 80f
12:30  -   -   -  9 11 mph 1016.3mb 83f 80f
12:20  -   -   -  9 11 mph 1016.3mb 83f 80f
12:10  -   -   -  9 11 mph 1016.5mb 83f 80f
12:00  -   -   -  9 11 mph 1016.3mb 83f 80f
11:50 2.5ft 5s 5s 9 11 mph 1016.4mb 83f 80f
11:40  -   -   -  9 11 mph 1016.3mb 82f 80f
11:30  -   -   -  9 11 mph 1016.5mb 82f 80f
11:20  -   -   -  9 11 mph 1016.5mb 82f 79f
11:10  -   -   -  9 13 mph 1016.5mb 82f 79f
11:00  -   -   -  9 11 mph 1016.6mb 82f 79f
10:50 2.5ft 6s 5s 9 11 mph 1016.5mb 82f 78f
10:40  -   -   -  9 11 mph 1016.6mb 82f 78f
10:30  -   -   -  7 9 mph 1016.8mb 82f 79f
10:20  -   -   -  4 7 mph 1016.8mb 82f 79f
10:10  -   -   -  4 7 mph 1016.8mb 82f 78f
10:00  -   -   -  4 7 mph 1016.8mb 82f 78f
9:50 2.5ft 6s 5s 4 7 mph 1016.9mb 82f 78f
9:40  -   -   -  4 7 mph 1016.9mb 82f 77f
9:30  -   -   -  7 11 mph 1017mb 82f 78f
9:20  -   -   -  4 7 mph 1016.9mb 82f 78f
9:10  -   -   -  7 16 mph 1016.9mb 82f 78f
9:00  -   -   -  4 7 mph 1016.8mb 82f 78f
8:50 3ft 6s 5s 4 7 mph 1016.6mb 82f 78f
8:40 3ft  -  5s 7 9 mph 1017mb 82f 78f
8:30  -   -   -  4 9 mph 1017mb 82f 78f
8:20  -   -   -  7 9 mph 1017mb 82f 79f
8:10  -   -   -  4 9 mph 1017mb 82f 79f
8:00  -   -   -  9 13 mph 1016.9mb 82f 79f
7:50 2.5ft 7s 5s 13 18 mph 1016.8mb 82f 80f
7:40  -   -   -  7 13 mph 1016.8mb 82f 81f
7:30  -   -   -  7 9 mph 1016.5mb 82f 81f
7:20  -   -   -  7 9 mph 1016.5mb 82f 81f
7:10  -   -   -  7 9 mph 1016.5mb 82f 81f
7:00  -   -   -  7 9 mph 1016.5mb 82f 81f
6:50 3ft 6s 5s 7 9 mph 1016.3mb 82f 81f
6:40  -   -   -  7 9 mph 1016.3mb 82f 81f
6:30  -   -   -  7 9 mph 1016.1mb 82f 81f
6:20  -   -   -  7 11 mph 1016mb 82f 81f
6:10  -   -   -  7 9 mph 1016mb 82f 81f
6:00  -   -   -  7 9 mph 1016mb 82f 81f
5:50 3ft 7s 5s 7 9 mph 1016mb 82f 81f
5:40  -   -   -  7 9 mph 1016mb 82f 81f
5:30  -   -   -  7 9 mph 1015.9mb 82f 81f
5:20  -   -   -  7 9 mph 1015.8mb 82f 81f
5:10  -   -   -  4 7 mph 1015.9mb 82f 81f
5:00  -   -   -  7 9 mph 1015.8mb 82f 81f
4:50 3ft 7s 5s 7 9 mph 1015.8mb 82f 81f
4:40  -   -   -  7 9 mph 1015.8mb 82f 81f
4:30  -   -   -  7 9 mph 1015.6mb 82f 81f
4:20  -   -   -  7 9 mph 1015.6mb 82f 81f
4:10  -   -   -  7 9 mph 1015.9mb 82f 81f
4:00  -   -   -  7 9 mph 1016mb 82f 81f
3:50 3.5ft 7s 5s 7 9 mph 1016mb 82f 81f
3:40  -   -   -  7 9 mph 1016mb 82f 81f
3:30  -   -   -  7 9 mph 1016mb 82f 81f
3:20  -   -   -  7 9 mph 1016mb 82f 81f
3:10  -   -   -  7 9 mph 1016.1mb 82f 81f
3:00  -   -   -  7 9 mph 1016.3mb 82f 81f
2:50 3.5ft 7s 5s 7 9 mph 1016.4mb 82f 81f
2:40  -   -   -  7 9 mph 1016.5mb 82f 81f
2:30  -   -   -  7 9 mph 1016.5mb 82f 81f
2:20  -   -   -  7 11 mph 1016.5mb 82f 81f
2:10  -   -   -  7 9 mph 1016.5mb 82f 81f
2:00  -   -   -  7 9 mph 1016.6mb 82f 81f
1:50 3.5ft 7s 5s 9 11 mph 1016.5mb 82f 81f
1:40  -   -   -  9 11 mph 1016.5mb 82f 81f
1:30  -   -   -  9 11 mph 1016.6mb 82f 81f
1:20  -   -   -  9 13 mph 1016.8mb 82f 81f
1:10  -   -   -  9 11 mph 1016.6mb 82f 81f
1:00  -   -   -  9 11 mph 1016.8mb 82f 81f
12:50 3.5ft 7s 6s 9 11 mph 1016.9mb 82f 81f
12:40  -   -   -  7 9 mph 1016.9mb 82f 81f
12:30  -   -   -  7 9 mph 1017mb 82f 81f
12:20  -   -   -  9 11 mph 1016.9mb 82f 81f
12:10  -   -   -  7 9 mph 1016.9mb 82f 81f
12:00  -   -   -  9 11 mph 1016.9mb 82f 81f
mar 09/01 11:50 3.5ft 7s 5s 9 11 mph 1016.9mb 82f 81f
11:40  -   -   -  7 9 mph 1016.9mb 82f 82f
11:30  -   -   -  7 9 mph 1016.8mb 82f 81f
11:20  -   -   -  7 9 mph 1016.8mb 82f 81f
11:10  -   -   -  9
mph
1016.8mb 82f 81f
11:00  -   -   -  9 11 mph 1016.8mb 82f 81f
10:50 3.5ft 7s 5s 9 11 mph 1016.8mb 82f 82f
10:40  -   -   -  9 11 mph 1016.9mb 82f 81f
10:30  -   -   -  9 11 mph 1016.9mb 82f 81f
10:20  -   -   -  9 11 mph 1016.8mb 82f 81f
10:10  -   -   -  9 13 mph 1016.9mb 82f 81f
10:00  -   -   -  11 13 mph 1016.8mb 82f 81f
9:50 3.5ft 7s 5s 11 13 mph 1016.6mb 82f 81f
9:40 3.5ft  -  5s 11 13 mph 1016.8mb 82f 81f
9:30  -   -   -  11 13 mph 1016.6mb 82f 81f
9:20  -   -   -  11 13 mph 1016.8mb 82f 81f
9:10  -   -   -  9 13 mph 1016.8mb 82f 81f
9:00  -   -   -  9 11 mph 1016.6mb 82f 81f
8:50 3.5ft 6s 5s 9 11 mph 1016.6mb 82f 81f
8:40 3.5ft  -  5s 9 11 mph 1016.5mb 82f 81f
8:30  -   -   -  9 11 mph 1016.5mb 83f 81f
8:20  -   -   -  9 11 mph 1016.4mb 83f 81f
8:10  -   -   -  9 11 mph 1016.1mb 83f 81f
8:00  -   -   -  9 11 mph 1016.1mb 83f 81f
7:50  -   -   -  9 11 mph 1016.1mb 83f 81f
7:40  -   -   -  9 11 mph 1016mb 83f 81f
7:30  -   -   -  7 9 mph 1016mb 83f 81f
7:20  -   -   -  7 11 mph 1015.9mb 83f 81f
7:10  -   -   -  7 11 mph 1015.8mb 83f 82f
7:00  -   -   -  9 11 mph 1015.8mb 83f 82f
6:50 4ft 7s 5s 9 11 mph 1015.8mb 83f 82f
6:40  -   -   -  9 11 mph 1015.9mb 83f 82f
6:30  -   -   -  9 11 mph 1015.8mb 83f 82f
6:20  -   -   -  9 11 mph 1015.8mb 83f 82f
6:10  -   -   -  9 11 mph 1015.6mb 83f 82f
6:00  -   -   -  9 11 mph 1015.5mb 83f 82f
5:50 4ft 7s 5s 7 9 mph 1015.5mb 83f 82f
5:40  -   -   -  7 11 mph 1015.5mb 83f 82f
5:30  -   -   -  7 9 mph 1015.5mb 83f 82f
5:20  -   -   -  7 9 mph 1015.5mb 83f 82f
5:10  -   -   -  7 9 mph 1015.6mb 83f 82f
5:00  -   -   -  7 11 mph 1015.5mb 83f 81f
4:50 4ft 7s 5s 9 13 mph 1015.5mb 83f 82f
4:40  -   -   -  9 11 mph 1015.5mb 83f 83f
4:30  -   -   -  9 11 mph 1015.5mb 83f 83f
4:20  -   -   -  11 13 mph 1015.5mb 83f 83f
4:10  -   -   -  9 11 mph 1015.5mb 83f 83f
4:00  -   -   -  11 13 mph 1015.6mb 83f 83f
3:50 4.5ft 7s 5s 9 11 mph 1015.6mb 83f 83f
3:40  -   -   -  9 11 mph 1015.6mb 83f 83f
3:30  -   -   -  9 11 mph 1015.6mb 83f 83f
3:20  -   -   -  9 13 mph 1015.8mb 83f 83f
3:10  -   -   -  11 13 mph 1015.8mb 83f 83f
3:00  -   -   -  9 11 mph 1015.9mb 83f 83f
2:50 4ft 7s 5s 9 11 mph 1016mb 83f 83f
2:40  -   -   -  9 11 mph 1016mb 83f 83f
2:30  -   -   -  9 13 mph 1016mb 83f 83f
2:20  -   -   -  9 11 mph 1016.3mb 83f 83f
2:10  -   -   -  9 11 mph 1016.4mb 83f 82f
2:00  -   -   -  9 11 mph 1016.5mb 83f 82f
1:50 4ft 7s 5s 11 13 mph 1016.8mb 83f 82f
1:40  -   -   -  11 13 mph 1016.8mb 83f 82f
1:30  -   -   -  11 16 mph 1016.9mb 83f 81f
1:20  -   -   -  13 16 mph 1016.9mb 83f 81f
1:10  -   -   -  11 13 mph 1017mb 82f 81f
1:00  -   -   -  11 13 mph 1017.1mb 83f 80f
12:50 4ft 7s 5s 11 13 mph 1017.1mb 82f 80f
12:40  -   -   -  11 13 mph 1017mb 82f 80f
12:30  -   -   -  11 13 mph 1017.1mb 82f 80f
12:20  -   -   -  11 16 mph 1017.1mb 82f 80f
12:10  -   -   -  9 13 mph 1017.1mb 82f 80f
12:00  -   -   -  9 13 mph 1017.4mb 82f 80f
11:50 4ft 6s 5s 11 13 mph 1017.5mb 82f 80f
11:40  -   -   -  11 13 mph 1017.6mb 82f 80f
11:30  -   -   -  11 16 mph 1017.5mb 82f 79f
11:20  -   -   -  16 20 mph 1017.5mb 82f 80f
11:10  -   -   -  16 18 mph 1017.3mb 82f 80f
11:00  -   -   -  16 20 mph 1017.3mb 82f 80f
10:50 4.5ft 7s 5s 18 20 mph 1017.5mb 82f 80f
10:40  -   -   -  18 20 mph 1017.5mb 82f 79f
10:30  -   -   -  18 20 mph 1017.5mb 82f 79f
10:20  -   -   -  13 18 mph 1017.8mb 82f 78f
10:10  -   -   -  11 13 mph 1017.5mb 82f 77f
10:00  -   -   -  11 13 mph 1018mb 82f 77f
9:50 4.5ft 7s 5s 13 16 mph 1018.4mb 82f 76f
9:40  -   -   -  13 16 mph 1018.4mb 82f 76f
9:30  -   -   -  11 16 mph 1018.4mb 82f 76f
9:20  -   -   -  13 18 mph 1018.5mb 82f 75f
9:10  -   -   -  16 22 mph 1018.6mb 82f 76f
9:00  -   -   -  18 22 mph 1019mb 82f 76f
8:50 4.5ft 7s 5s 20 31 mph 1018.5mb 82f 76f
8:40  -   -   -  18 34 mph 1018mb 82f 80f
8:30  -   -   -  16 20 mph 1018.3mb 82f 81f
8:20  -   -   -  11 16 mph 1018mb 82f 82f
8:10  -   -   -  11 13 mph 1017.8mb 82f 82f
8:00  -   -   -  11 13 mph 1017.5mb 82f 82f
7:50 4ft 8s 5s 11 16 mph 1017.3mb 82f 82f
7:40  -   -   -  11 13 mph 1016.8mb 82f 82f
7:30  -   -   -  9 11 mph 1017.3mb 82f 82f
7:20  -   -   -  9 11 mph 1017.1mb 82f 82f
7:10  -   -   -  9 11 mph 1017.5mb 82f 82f
7:00  -   -   -  9 13 mph 1017.5mb 82f 82f
6:50 3.5ft 8s 5s 11 13 mph 1017.8mb 82f 82f
6:40  -   -   -  11 13 mph 1017.5mb 82f 82f
6:30  -   -   -  11 13 mph 1017.5mb 82f 82f
6:20  -   -   -  11 13 mph 1017.5mb 82f 81f
6:10  -   -   -  11 16 mph 1017.3mb 82f 81f
6:00  -   -   -  13 16 mph 1017mb 82f 81f
5:50 3.5ft 8s 5s 11 16 mph 1017mb 82f 80f
5:40  -   -   -  9 18 mph 1017.3mb 82f 80f
5:30  -   -   -  16 22 mph 1017.5mb 82f 81f
5:20  -   -   -  13 18 mph 1017.3mb 82f 81f
5:10  -   -   -  13 18 mph 1017.4mb 82f 81f
5:00  -   -   -  13 18 mph 1017.5mb 82f 80f
4:50 3ft 9s 5s 13 16 mph 1017.5mb 82f 80f
4:40  -   -   -  13 16 mph 1017.4mb 82f 81f
4:30  -   -   -  13 18 mph 1017.4mb 82f 80f
4:20  -   -   -  11 13 mph 1017.5mb 82f 80f
4:10  -   -   -  9 11 mph 1017.5mb 82f 79f
4:00  -   -   -  9 11 mph 1017.8mb 82f 79f
3:50 3ft 10s 6s 9 11 mph 1017.8mb 82f 80f
3:40 3ft  -  6s 9 11 mph 1017.6mb 82f 79f
3:30  -   -   -  9 11 mph 1017.5mb 82f 79f
3:20  -   -   -  9 13 mph 1017.5mb 82f 79f
3:10  -   -   -  11 16 mph 1017.8mb 82f 79f
3:00  -   -   -  11 16 mph 1017.9mb 82f 80f
2:50 3ft 7s 5s 9 13 mph 1018mb 82f 80f
2:40  -   -   -  9 11 mph 1017.9mb 82f 80f
2:30  -   -   -  9 11 mph 1018mb 82f 80f
2:20  -   -   -  11
mph
1018mb 82f 80f
2:10  -   -   -  11 13 mph 1018.4mb 82f 80f
2:00  -   -   -  11 13 mph 1018.5mb 82f 80f
1:50  -   -   -  11 13 mph 1018.5mb 82f 80f
1:40  -   -   -  11 13 mph 1018.5mb 82f 80f
1:30  -   -   -  11 13 mph 1018.8mb 82f 80f
1:20  -   -   -  11 13 mph 1018.8mb 82f 80f
1:10  -   -   -  11 13 mph 1019mb 82f 80f
1:00  -   -   -  11 13 mph 1019mb 82f 80f
12:50 3.5ft 8s 5s 11 13 mph 1019mb 82f 80f
12:40 3.5ft  -  5s 13 16 mph 1019.1mb 82f 80f
12:30  -   -   -  13 16 mph 1019.1mb 83f 80f
12:20  -   -   -  13 16 mph 1019.1mb - 80f
12:10  -   -   -  13 18 mph 1019mb 83f 80f
12:00  -   -   -  13 16 mph 1019.1mb 82f 80f
lun 08/31 11:50 3.5ft 8s 5s 11 16 mph 1019.1mb 83f 80f
11:40  -   -   -  11 13 mph 1019.1mb 82f 80f
11:30  -   -   -  11 13 mph 1019mb 82f 80f
11:20  -   -   -  11 13 mph 1019.3mb 82f 80f
11:10  -   -   -  13 18 mph 1019.4mb 83f 80f
11:00  -   -   -  13 18 mph 1019.5mb 83f 80f
10:50 3ft 7s 5s 16 18 mph 1019.5mb 83f 80f
10:40  -   -   -  16 20 mph 1019.5mb 83f 80f
10:30  -   -   -  13 18 mph 1019.5mb 83f 80f
10:20  -   -   -  16 18 mph 1019.5mb 83f 80f
10:10  -   -   -  18 22 mph 1019.6mb 83f 80f
10:00  -   -   -  16 20 mph 1019.6mb 83f 82f
9:50 3.5ft 8s 6s 13 18 mph 1019.6mb 83f 82f
9:40  -   -   -  16 20 mph 1019.8mb 83f 82f
9:30  -   -   -  13 18 mph 1019.8mb 83f 82f
9:20  -   -   -  13 16 mph 1019.8mb 82f 82f
9:10  -   -   -  13 16 mph 1019.8mb 82f 82f
9:00  -   -   -  11 13 mph 1019.6mb 83f 82f
8:50 3ft 8s 5s 11 13 mph 1019.6mb 83f 82f
8:40 3ft  -  6s 11 13 mph 1019.5mb 82f 82f
8:30  -   -   -  11 16 mph 1019.5mb 83f 82f
8:20  -   -   -  11 16 mph 1019.5mb 83f 82f
8:10  -   -   -  9 13 mph 1019.5mb 83f 82f
8:00  -   -   -  9 11 mph 1019.5mb 83f 82f
7:50 3.5ft 8s 6s 9 11 mph 1019.5mb 83f 82f
7:40  -   -   -  9 11 mph 1019.5mb 83f 82f
7:10  -   -   -  7 9 mph 1019.4mb 83f 82f
7:00  -   -   -  9 11 mph 1019.3mb 83f 82f
6:50 3.5ft 8s 6s 9
mph
1019.5mb 83f 82f
6:40 3.5ft  -  6s 7 9 mph 1019.5mb 83f 82f
6:30  -   -   -  7 9 mph 1019.5mb 83f 82f
6:20  -   -   -  7 9 mph 1019.4mb 83f 82f
6:10  -   -   -  7 9 mph 1019.5mb 83f 82f
6:00  -   -   -  7 9 mph 1019.6mb 83f 82f
5:50 3.5ft 9s 6s 9 11 mph 1019.8mb 83f 82f
5:40  -   -   -  9 11 mph 1019.8mb 83f 82f
5:30  -   -   -  7 11 mph 1019.9mb 83f 82f
5:20  -   -   -  7 11 mph 1020mb 83f 82f
5:10  -   -   -  4 7 mph 1020mb 83f 82f
5:00  -   -   -  2 4 mph 1020mb 83f 82f
4:50 3.5ft 8s 6s 2 4 mph 1019.8mb 83f 82f
4:40  -   -   -  4
mph
1019.8mb 83f 82f
4:30  -   -   -  4
mph
1019.9mb 83f 82f
4:20  -   -   -  4 7 mph 1019.9mb 83f 82f
4:10  -   -   -  4 7 mph 1019.9mb 83f 82f
4:00  -   -   -  4 7 mph 1019.8mb 83f 82f